createdAt,value
2023-02-06T00:00:48.289Z,80.50
2023-02-06T00:03:15.265Z,80.44
2023-02-06T00:05:41.868Z,80.11
2023-02-06T00:08:08.487Z,80.20
2023-02-06T00:10:35.248Z,80.96
2023-02-06T00:13:01.833Z,80.49
2023-02-06T00:15:28.422Z,81.32
2023-02-06T00:17:55.009Z,80.97
2023-02-06T00:20:21.700Z,81.61
2023-02-06T00:22:48.248Z,81.19
2023-02-06T00:25:14.817Z,80.54
2023-02-06T00:27:41.502Z,80.48
2023-02-06T00:30:08.408Z,80.45
2023-02-06T00:32:35.273Z,80.29
2023-02-06T00:35:01.950Z,80.01
2023-02-06T00:37:28.526Z,79.83
2023-02-06T00:39:55.114Z,79.77
2023-02-06T00:42:21.674Z,80.49
2023-02-06T00:44:48.247Z,80.92
2023-02-06T00:47:14.819Z,80.79
2023-02-06T00:49:41.457Z,80.27
2023-02-06T00:52:08.046Z,79.18
2023-02-06T00:54:34.602Z,79.36
2023-02-06T00:57:01.166Z,79.57
2023-02-06T00:59:27.729Z,78.33
2023-02-06T01:01:54.382Z,78.64
2023-02-06T01:04:21.088Z,77.72
2023-02-06T01:06:47.675Z,77.93
2023-02-06T01:09:14.230Z,79.13
2023-02-06T01:11:40.796Z,80.34
2023-02-06T01:14:07.357Z,81.44
2023-02-06T01:16:33.920Z,81.53
2023-02-06T01:19:00.499Z,80.99
2023-02-06T01:21:27.067Z,80.96
2023-02-06T01:23:54.873Z,81.17
2023-02-06T01:26:26.685Z,79.71
2023-02-06T01:28:54.296Z,78.23
2023-02-06T01:31:24.066Z,79.21
2023-02-06T01:33:52.156Z,79.89
2023-02-06T01:36:20.790Z,79.95
2023-02-06T01:38:48.542Z,79.73
2023-02-06T01:41:16.940Z,78.89
2023-02-06T01:43:46.582Z,79.37
2023-02-06T01:46:13.608Z,79.52
2023-02-06T01:48:47.688Z,79.82
2023-02-06T01:51:19.708Z,79.52
2023-02-06T01:53:50.663Z,79.17
2023-02-06T01:56:19.647Z,79.57
2023-02-06T01:58:50.004Z,80.65
2023-02-06T02:01:17.073Z,81.18
2023-02-06T02:03:47.725Z,82.04
2023-02-06T02:06:18.945Z,80.72
2023-02-06T02:08:50.037Z,80.76
2023-02-06T02:11:43.279Z,81.21
2023-02-06T02:14:12.426Z,80.93
2023-02-06T02:16:57.114Z,81.17
2023-02-06T02:19:32.902Z,81.17
2023-02-06T02:22:18.486Z,81.49
2023-02-06T02:25:18.741Z,81.57
2023-02-06T02:28:19.375Z,81.66
2023-02-06T02:31:08.558Z,82.48
2023-02-06T02:34:11.949Z,82.48
2023-02-06T02:37:10.721Z,83.18
2023-02-06T02:39:40.568Z,82.64
2023-02-06T02:42:19.025Z,81.99
2023-02-06T02:45:40.634Z,82.39
2023-02-06T02:48:23.247Z,82.28
2023-02-06T02:50:50.742Z,82.03
2023-02-06T02:53:17.524Z,82.42
2023-02-06T02:55:44.186Z,81.26
2023-02-06T02:58:15.045Z,81.71
2023-02-06T03:00:47.519Z,82.24
2023-02-06T03:03:15.786Z,82.26
2023-02-06T03:06:05.113Z,81.29
2023-02-06T03:08:38.501Z,81.54
2023-02-06T03:11:17.397Z,81.19
2023-02-06T03:14:02.508Z,81.39
2023-02-06T03:16:38.014Z,81.33
2023-02-06T03:19:15.185Z,80.92
2023-02-06T03:21:43.463Z,80.50
2023-02-06T03:24:19.352Z,81.14
2023-02-06T03:26:49.167Z,81.65
2023-02-06T03:29:17.831Z,82.00
2023-02-06T03:31:49.736Z,81.95
2023-02-06T03:34:31.341Z,82.50
2023-02-06T03:36:58.062Z,82.37
2023-02-06T03:39:24.709Z,82.46
2023-02-06T03:41:52.895Z,82.25
2023-02-06T03:44:24.762Z,81.83
2023-02-06T03:46:55.710Z,81.56
2023-02-06T03:49:26.891Z,82.07
2023-02-06T03:52:06.105Z,81.42
2023-02-06T03:54:35.886Z,81.36
2023-02-06T03:57:05.371Z,80.64
2023-02-06T03:59:32.494Z,80.33
2023-02-06T04:02:02.955Z,80.45
2023-02-06T04:04:34.976Z,81.01
2023-02-06T04:07:15.774Z,81.09
2023-02-06T04:09:42.333Z,81.60
2023-02-06T04:12:09.306Z,81.25
2023-02-06T04:14:36.895Z,81.66
2023-02-06T04:17:06.854Z,82.07
2023-02-06T04:19:34.279Z,81.73
2023-02-06T04:22:02.104Z,81.16
2023-02-06T04:24:30.854Z,80.96
2023-02-06T04:26:57.636Z,81.26
2023-02-06T04:29:24.183Z,81.11
2023-02-06T04:31:51.233Z,81.38
2023-02-06T04:34:18.135Z,81.32
2023-02-06T04:36:44.774Z,82.00
2023-02-06T04:39:11.353Z,81.44
2023-02-06T04:41:37.920Z,81.56
2023-02-06T04:44:04.620Z,81.63
2023-02-06T04:46:31.407Z,82.02
2023-02-06T04:48:57.959Z,82.12
2023-02-06T04:51:24.585Z,81.88
2023-02-06T04:53:51.128Z,81.81
2023-02-06T04:56:17.764Z,82.12
2023-02-06T04:58:44.363Z,81.79
2023-02-06T05:01:11.391Z,81.66
2023-02-06T05:03:38.048Z,81.60
2023-02-06T05:06:05.497Z,81.38
2023-02-06T05:08:32.035Z,81.38
2023-02-06T05:10:58.661Z,81.76
2023-02-06T05:13:25.505Z,81.27
2023-02-06T05:15:52.140Z,81.42
2023-02-06T05:18:19.068Z,81.13
2023-02-06T05:20:45.711Z,80.70
2023-02-06T05:23:12.311Z,81.21
2023-02-06T05:25:40.796Z,81.25
2023-02-06T05:28:08.825Z,81.66
2023-02-06T05:30:36.152Z,81.44
2023-02-06T05:33:02.797Z,81.69
2023-02-06T05:35:29.666Z,81.60
2023-02-06T05:37:57.519Z,81.60
2023-02-06T05:40:24.585Z,81.85
2023-02-06T05:42:51.318Z,81.56
2023-02-06T05:45:18.034Z,81.62
2023-02-06T05:47:44.685Z,81.75
2023-02-06T05:50:11.232Z,81.63
2023-02-06T05:52:37.813Z,81.74
2023-02-06T05:55:04.820Z,81.74
2023-02-06T05:57:31.414Z,81.46
2023-02-06T05:59:58.036Z,81.43
2023-02-06T06:02:24.610Z,81.26
2023-02-06T06:04:51.345Z,81.63
2023-02-06T06:07:17.971Z,81.40
2023-02-06T06:09:44.528Z,81.24
2023-02-06T06:12:11.106Z,81.53
2023-02-06T06:14:37.780Z,81.08
2023-02-06T06:17:04.408Z,81.22
2023-02-06T06:19:31.029Z,81.04
2023-02-06T06:21:58.399Z,80.59
2023-02-06T06:24:26.443Z,80.78
2023-02-06T06:26:53.332Z,80.47
2023-02-06T06:29:19.932Z,80.51
2023-02-06T06:31:46.698Z,80.78
2023-02-06T06:34:13.266Z,81.08
2023-02-06T06:36:39.854Z,80.77
2023-02-06T06:39:06.412Z,80.58
2023-02-06T06:41:33.475Z,80.29
2023-02-06T06:44:00.775Z,80.48
2023-02-06T06:46:27.373Z,79.80
2023-02-06T06:48:53.943Z,80.23
2023-02-06T06:51:21.116Z,80.43
2023-02-06T06:53:47.724Z,80.47
2023-02-06T06:56:15.183Z,79.88
2023-02-06T06:58:42.324Z,80.17
2023-02-06T07:01:09.462Z,80.35
2023-02-06T07:03:36.737Z,80.21
2023-02-06T07:06:05.322Z,79.96
2023-02-06T07:08:31.925Z,79.65
2023-02-06T07:10:58.536Z,79.55
2023-02-06T07:13:25.301Z,79.63
2023-02-06T07:15:51.929Z,78.91
2023-02-06T07:18:18.518Z,79.09
2023-02-06T07:20:45.152Z,79.13
2023-02-06T07:23:11.776Z,79.30
2023-02-06T07:25:38.571Z,78.44
2023-02-06T07:28:05.416Z,78.47
2023-02-06T07:30:32.038Z,79.06
2023-02-06T07:32:58.671Z,78.82
2023-02-06T07:35:25.475Z,78.56
2023-02-06T07:37:55.168Z,78.09
2023-02-06T07:40:22.124Z,77.94
2023-02-06T07:42:48.711Z,78.71
2023-02-06T07:45:15.655Z,78.75
2023-02-06T07:47:42.829Z,78.34
2023-02-06T07:50:10.192Z,78.09
2023-02-06T07:52:37.403Z,77.85
2023-02-06T07:55:04.521Z,77.88
2023-02-06T07:57:31.559Z,78.30
2023-02-06T07:59:58.167Z,78.03
2023-02-06T08:02:24.991Z,78.48
2023-02-06T08:04:51.549Z,78.66
2023-02-06T08:07:18.336Z,77.83
2023-02-06T08:09:45.095Z,77.79
2023-02-06T08:12:12.140Z,74.47
2023-02-06T08:14:39.196Z,74.99
2023-02-06T08:17:05.979Z,72.05
2023-02-06T08:19:32.562Z,70.08
2023-02-06T08:21:59.147Z,69.21
2023-02-06T08:24:25.778Z,66.51
2023-02-06T08:26:52.395Z,66.87
2023-02-06T08:29:19.121Z,65.45
2023-02-06T08:31:46.074Z,63.97
2023-02-06T08:34:15.092Z,62.09
2023-02-06T08:36:43.566Z,61.15
2023-02-06T08:39:13.353Z,62.54
2023-02-06T08:41:41.309Z,60.77
2023-02-06T08:44:11.899Z,59.53
2023-02-06T08:46:39.773Z,57.42
2023-02-06T08:49:11.338Z,58.63
2023-02-06T08:51:37.942Z,57.52
2023-02-06T08:54:07.411Z,57.17
2023-02-06T08:56:35.518Z,55.26
2023-02-06T08:59:02.938Z,54.22
2023-02-06T09:01:32.002Z,56.06
2023-02-06T09:04:01.067Z,53.93
2023-02-06T09:06:28.387Z,50.87
2023-02-06T09:08:56.963Z,51.31
2023-02-06T09:11:25.537Z,52.80
2023-02-06T09:13:57.990Z,50.49
2023-02-06T09:16:26.016Z,49.42
2023-02-06T09:18:56.257Z,53.04
2023-02-06T09:21:24.991Z,48.14
2023-02-06T09:23:53.925Z,46.49
2023-02-06T09:26:24.160Z,44.89
2023-02-06T09:28:54.673Z,44.91
2023-02-06T09:31:21.235Z,44.21
2023-02-06T09:33:47.781Z,43.90
2023-02-06T09:36:17.250Z,45.17
2023-02-06T09:38:47.069Z,41.90
2023-02-06T09:41:25.300Z,40.05
2023-02-06T09:43:54.667Z,36.75
2023-02-06T09:46:28.137Z,37.65
2023-02-06T09:48:59.009Z,37.03
2023-02-06T09:51:52.165Z,35.65
2023-02-06T09:54:31.457Z,34.04
2023-02-06T09:57:21.654Z,34.58
2023-02-06T09:59:56.362Z,32.94
2023-02-06T10:02:25.948Z,33.74
2023-02-06T10:04:58.640Z,32.01
2023-02-06T10:08:03.245Z,33.60
2023-02-06T10:10:55.614Z,31.65
2023-02-06T10:13:36.200Z,30.03
2023-02-06T10:16:28.085Z,30.39
2023-02-06T10:19:00.917Z,30.72
2023-02-06T10:21:43.511Z,29.60
2023-02-06T10:24:22.325Z,30.19
2023-02-06T10:26:51.934Z,29.21
2023-02-06T10:29:24.935Z,30.04
2023-02-06T10:32:15.917Z,28.91
2023-02-06T10:35:01.103Z,29.21
2023-02-06T10:37:50.504Z,27.83
2023-02-06T10:40:28.611Z,29.68
2023-02-06T10:42:59.632Z,27.39
2023-02-06T10:46:00.104Z,28.49
2023-02-06T10:48:34.552Z,26.74
2023-02-06T10:51:16.236Z,26.06
2023-02-06T10:53:54.650Z,26.18
2023-02-06T10:56:26.526Z,25.15
2023-02-06T10:59:00.281Z,24.94
2023-02-06T11:01:34.455Z,25.58
2023-02-06T11:04:15.526Z,25.24
2023-02-06T11:06:43.051Z,25.44
2023-02-06T11:09:10.359Z,26.14
2023-02-06T11:11:41.727Z,26.95
2023-02-06T11:14:17.564Z,25.82
2023-02-06T11:16:46.027Z,25.61
2023-02-06T11:19:25.385Z,25.60
2023-02-06T11:22:08.645Z,25.17
2023-02-06T11:24:39.126Z,25.97
2023-02-06T11:27:20.525Z,25.53
2023-02-06T11:29:51.968Z,25.33
2023-02-06T11:33:02.535Z,24.72
2023-02-06T11:35:30.457Z,24.32
2023-02-06T11:38:31.753Z,25.39
2023-02-06T11:41:05.938Z,25.16
2023-02-06T11:43:54.375Z,24.72
2023-02-06T11:46:29.763Z,24.19
2023-02-06T11:48:56.305Z,24.15
2023-02-06T11:51:24.290Z,23.60
2023-02-06T11:53:59.212Z,24.29
2023-02-06T11:56:26.515Z,24.22
2023-02-06T11:59:06.034Z,24.06
2023-02-06T12:01:45.114Z,24.48
2023-02-06T12:04:25.098Z,25.13
2023-02-06T12:07:19.733Z,25.01
2023-02-06T12:09:46.307Z,25.77
2023-02-06T12:12:25.632Z,25.24
2023-02-06T12:15:36.276Z,25.77
2023-02-06T12:18:02.860Z,25.20
2023-02-06T12:20:35.104Z,25.27
2023-02-06T12:23:20.573Z,24.38
2023-02-06T12:25:52.735Z,23.82
2023-02-06T12:28:47.521Z,23.48
2023-02-06T12:31:21.898Z,22.83
2023-02-06T12:33:55.270Z,22.57
2023-02-06T12:36:25.789Z,23.35
2023-02-06T12:39:05.681Z,22.92
2023-02-06T12:41:40.876Z,23.52
2023-02-06T12:44:16.635Z,23.65
2023-02-06T12:46:45.212Z,23.41
2023-02-06T12:49:20.001Z,22.68
2023-02-06T12:51:52.435Z,22.55
2023-02-06T12:54:28.542Z,22.72
2023-02-06T12:57:04.181Z,23.52
2023-02-06T12:59:58.977Z,23.43
2023-02-06T13:02:52.958Z,24.38
2023-02-06T13:05:25.238Z,24.37
2023-02-06T13:07:55.312Z,24.36
2023-02-06T13:10:26.444Z,25.66
2023-02-06T13:12:55.474Z,25.14
2023-02-06T13:15:25.043Z,25.12
2023-02-06T13:17:51.877Z,25.83
2023-02-06T13:20:20.433Z,25.98
2023-02-06T13:22:50.087Z,26.22
2023-02-06T13:25:25.759Z,25.59
2023-02-06T13:27:53.945Z,25.22
2023-02-06T13:30:29.598Z,26.13
2023-02-06T13:33:17.649Z,25.50
2023-02-06T13:36:00.053Z,26.77
2023-02-06T13:38:28.583Z,24.64
2023-02-06T13:41:15.456Z,25.15
2023-02-06T13:43:55.632Z,24.07
2023-02-06T13:46:29.338Z,22.37
2023-02-06T13:49:47.935Z,22.90
2023-02-06T13:52:14.492Z,23.51
2023-02-06T13:54:56.277Z,23.29
2023-02-06T13:57:43.952Z,23.72
2023-02-06T14:00:28.840Z,24.77
2023-02-06T14:03:06.583Z,24.91
2023-02-06T14:06:02.178Z,25.44
2023-02-06T14:09:08.803Z,25.91
2023-02-06T14:11:38.109Z,25.58
2023-02-06T14:14:14.755Z,24.93
2023-02-06T14:17:16.891Z,25.15
2023-02-06T14:19:48.223Z,25.78
2023-02-06T14:22:42.758Z,25.46
2023-02-06T14:25:14.522Z,25.66
2023-02-06T14:28:02.399Z,25.05
2023-02-06T14:30:38.490Z,25.44
2023-02-06T14:33:23.563Z,26.25
2023-02-06T14:36:25.145Z,26.05
2023-02-06T14:39:41.513Z,26.09
2023-02-06T14:42:24.334Z,26.05
2023-02-06T14:45:13.800Z,27.50
2023-02-06T14:47:43.202Z,27.94
2023-02-06T14:50:18.706Z,27.29
2023-02-06T14:52:49.556Z,27.23
2023-02-06T14:55:43.464Z,27.17
2023-02-06T14:58:27.475Z,27.67
2023-02-06T15:00:56.176Z,27.70
2023-02-06T15:03:27.144Z,27.57
2023-02-06T15:06:10.115Z,28.42
2023-02-06T15:08:36.802Z,30.54
2023-02-06T15:11:06.996Z,28.57
2023-02-06T15:13:35.398Z,30.41
2023-02-06T15:16:12.721Z,31.17
2023-02-06T15:18:39.328Z,33.55
2023-02-06T15:21:12.307Z,31.58
2023-02-06T15:23:50.760Z,33.53
2023-02-06T15:26:35.477Z,32.81
2023-02-06T15:29:05.201Z,32.04
2023-02-06T15:31:32.310Z,33.85
2023-02-06T15:34:01.238Z,35.83
2023-02-06T15:36:39.200Z,33.07
2023-02-06T15:39:09.588Z,34.90
2023-02-06T15:41:37.069Z,35.62
2023-02-06T15:44:32.198Z,33.68
2023-02-06T15:47:01.148Z,34.91
2023-02-06T15:49:41.497Z,34.94
2023-02-06T15:52:08.402Z,35.18
2023-02-06T15:54:35.002Z,35.92
2023-02-06T15:57:07.783Z,35.51
2023-02-06T15:59:37.263Z,36.07
2023-02-06T16:02:04.475Z,39.78
2023-02-06T16:04:37.054Z,35.33
2023-02-06T16:07:06.719Z,37.51
2023-02-06T16:09:40.906Z,38.64
2023-02-06T16:12:08.420Z,37.98
2023-02-06T16:14:38.033Z,40.77
2023-02-06T16:17:13.716Z,40.34
2023-02-06T16:19:47.878Z,41.24
2023-02-06T16:22:23.731Z,41.62
2023-02-06T16:24:53.343Z,41.78
2023-02-06T16:27:26.117Z,41.17
2023-02-06T16:29:57.413Z,41.20
2023-02-06T16:32:29.969Z,39.25
2023-02-06T16:34:56.563Z,42.27
2023-02-06T16:37:26.219Z,42.59
2023-02-06T16:39:53.533Z,44.47
2023-02-06T16:42:34.755Z,43.86
2023-02-06T16:45:08.205Z,44.33
2023-02-06T16:47:34.844Z,42.65
2023-02-06T16:50:01.566Z,44.84
2023-02-06T16:52:31.413Z,46.26
2023-02-06T16:54:59.266Z,45.86
2023-02-06T16:57:38.174Z,47.40
2023-02-06T17:00:26.618Z,44.54
2023-02-06T17:02:54.174Z,46.27
2023-02-06T17:05:23.179Z,47.53
2023-02-06T17:07:50.869Z,46.65
2023-02-06T17:10:23.975Z,48.82
2023-02-06T17:12:50.911Z,48.21
2023-02-06T17:15:19.158Z,48.65
2023-02-06T17:17:46.270Z,49.05
2023-02-06T17:20:32.726Z,49.34
2023-02-06T17:22:59.814Z,50.39
2023-02-06T17:25:26.544Z,49.69
2023-02-06T17:27:53.844Z,50.50
2023-02-06T17:30:22.966Z,51.69
2023-02-06T17:32:49.771Z,51.23
2023-02-06T17:35:16.985Z,48.81
2023-02-06T17:37:43.857Z,49.19
2023-02-06T17:40:28.762Z,49.76
2023-02-06T17:42:56.373Z,49.47
2023-02-06T17:45:23.022Z,51.39
2023-02-06T17:47:50.151Z,52.09
2023-02-06T17:50:22.099Z,49.94
2023-02-06T17:52:48.924Z,51.29
2023-02-06T17:55:16.698Z,49.92
2023-02-06T17:57:43.393Z,51.04
2023-02-06T18:00:14.783Z,49.93
2023-02-06T18:02:43.015Z,51.29
2023-02-06T18:05:09.781Z,50.68
2023-02-06T18:07:38.534Z,47.00
2023-02-06T18:10:06.486Z,51.92
2023-02-06T18:12:33.073Z,52.44
2023-02-06T18:14:59.990Z,51.63
2023-02-06T18:17:26.596Z,49.24
2023-02-06T18:19:53.165Z,52.13
2023-02-06T18:22:22.056Z,53.26
2023-02-06T18:24:50.035Z,53.54
2023-02-06T18:27:18.560Z,53.50
2023-02-06T18:29:50.156Z,50.76
2023-02-06T18:32:18.088Z,52.77
2023-02-06T18:34:44.821Z,54.07
2023-02-06T18:37:11.461Z,50.66
2023-02-06T18:39:38.709Z,53.35
2023-02-06T18:42:24.117Z,53.50
2023-02-06T18:44:50.686Z,52.75
2023-02-06T18:47:18.837Z,52.62
2023-02-06T18:49:45.576Z,53.56
2023-02-06T18:52:12.401Z,54.92
2023-02-06T18:54:39.538Z,56.26
2023-02-06T18:57:06.699Z,55.40
2023-02-06T18:59:33.928Z,54.13
2023-02-06T19:02:00.806Z,54.95
2023-02-06T19:04:27.644Z,53.29
2023-02-06T19:06:54.357Z,55.72
2023-02-06T19:09:20.984Z,56.22
2023-02-06T19:11:48.170Z,57.24
2023-02-06T19:14:17.147Z,59.30
2023-02-06T19:16:49.030Z,57.64
2023-02-06T19:19:15.784Z,61.08
2023-02-06T19:21:44.256Z,59.25
2023-02-06T19:24:13.932Z,59.72
2023-02-06T19:26:40.905Z,59.50
2023-02-06T19:29:07.965Z,58.13
2023-02-06T19:31:36.076Z,60.80
2023-02-06T19:34:02.850Z,58.28
2023-02-06T19:36:30.504Z,59.52
2023-02-06T19:39:02.854Z,58.67
2023-02-06T19:41:31.562Z,60.55
2023-02-06T19:44:02.478Z,60.39
2023-02-06T19:46:29.100Z,58.53
2023-02-06T19:48:55.891Z,60.80
2023-02-06T19:51:31.453Z,60.18
2023-02-06T19:53:59.429Z,58.58
2023-02-06T19:56:34.576Z,59.96
2023-02-06T19:59:03.656Z,60.21
2023-02-06T20:01:31.259Z,60.81
2023-02-06T20:04:00.174Z,61.34
2023-02-06T20:06:28.632Z,64.58
2023-02-06T20:08:57.107Z,62.43
2023-02-06T20:11:23.975Z,62.70
2023-02-06T20:13:52.215Z,62.80
2023-02-06T20:16:24.909Z,61.20
2023-02-06T20:18:52.062Z,59.91
2023-02-06T20:21:39.072Z,61.87
2023-02-06T20:24:10.249Z,60.90
2023-02-06T20:26:39.100Z,59.45
2023-02-06T20:29:07.641Z,60.64
2023-02-06T20:31:35.987Z,59.14
2023-02-06T20:34:03.116Z,60.62
2023-02-06T20:36:29.980Z,63.44
2023-02-06T20:38:59.827Z,65.18
2023-02-06T20:41:31.082Z,65.77
2023-02-06T20:43:59.768Z,65.68
2023-02-06T20:46:29.687Z,66.50
2023-02-06T20:49:00.986Z,67.96
2023-02-06T20:51:28.646Z,66.74
2023-02-06T20:53:55.351Z,67.25
2023-02-06T20:56:23.000Z,66.75
2023-02-06T20:58:51.032Z,65.64
2023-02-06T21:01:23.635Z,68.61
2023-02-06T21:03:52.113Z,70.16
2023-02-06T21:06:18.873Z,70.03
2023-02-06T21:08:47.651Z,68.75
2023-02-06T21:11:14.428Z,68.75
2023-02-06T21:13:41.432Z,68.94
2023-02-06T21:16:09.181Z,67.18
2023-02-06T21:18:36.883Z,68.77
2023-02-06T21:21:09.350Z,71.17
2023-02-06T21:23:37.572Z,71.07
2023-02-06T21:26:05.344Z,70.41
2023-02-06T21:28:34.028Z,70.38
2023-02-06T21:31:06.737Z,68.50
2023-02-06T21:33:34.237Z,71.32
2023-02-06T21:36:06.913Z,73.13
2023-02-06T21:38:34.863Z,69.19
2023-02-06T21:41:06.975Z,72.13
2023-02-06T21:43:34.550Z,71.39
2023-02-06T21:46:01.279Z,68.93
2023-02-06T21:48:27.996Z,69.61
2023-02-06T21:50:54.925Z,70.88
2023-02-06T21:53:22.321Z,70.09
2023-02-06T21:55:48.898Z,69.99
2023-02-06T21:58:15.675Z,70.95
2023-02-06T22:00:47.212Z,71.79
2023-02-06T22:03:14.612Z,72.54
2023-02-06T22:05:41.296Z,72.97
2023-02-06T22:08:07.920Z,73.53
2023-02-06T22:10:37.954Z,73.96
2023-02-06T22:13:05.945Z,73.90
2023-02-06T22:15:33.506Z,74.49
2023-02-06T22:18:00.321Z,74.77
2023-02-06T22:20:27.124Z,73.57
2023-02-06T22:22:54.965Z,74.38
2023-02-06T22:25:21.980Z,75.16
2023-02-06T22:27:48.617Z,75.47
2023-02-06T22:30:15.349Z,75.57
2023-02-06T22:32:41.940Z,75.42
2023-02-06T22:35:08.948Z,74.94
2023-02-06T22:37:35.751Z,75.85
2023-02-06T22:40:02.339Z,75.36
2023-02-06T22:42:28.874Z,75.54
2023-02-06T22:44:55.609Z,75.60
2023-02-06T22:47:22.250Z,75.90
2023-02-06T22:49:51.530Z,76.03
2023-02-06T22:52:36.531Z,76.57
2023-02-06T22:55:04.293Z,77.82
2023-02-06T22:57:30.868Z,77.34
2023-02-06T22:59:57.444Z,78.14
2023-02-06T23:02:24.000Z,78.23
2023-02-06T23:04:50.674Z,77.44
2023-02-06T23:07:17.215Z,77.99
2023-02-06T23:09:43.759Z,78.34
2023-02-06T23:12:11.624Z,78.87
2023-02-06T23:14:38.229Z,77.18
2023-02-06T23:17:04.796Z,77.75
2023-02-06T23:19:31.677Z,77.01
2023-02-06T23:21:58.205Z,77.96
2023-02-06T23:24:24.849Z,78.37
2023-02-06T23:26:53.708Z,79.25
2023-02-06T23:29:21.869Z,79.19
2023-02-06T23:31:48.881Z,79.00
2023-02-06T23:34:17.503Z,79.36
2023-02-06T23:36:44.788Z,79.13
2023-02-06T23:39:12.063Z,79.68
2023-02-06T23:41:38.868Z,79.40
2023-02-06T23:44:07.154Z,79.71
2023-02-06T23:46:36.426Z,79.64
2023-02-06T23:49:03.336Z,79.63
2023-02-06T23:51:30.004Z,79.75
2023-02-06T23:53:56.631Z,80.67
2023-02-06T23:56:26.822Z,80.70
2023-02-06T23:58:54.881Z,80.64
